Aeroporto :
LOGIN :

Iscrizione | Disclaimer

   EN    FR    IT 

 










Sommario :    VFR   VFR Marginale   IFR   IFR Intensivo   IFR Molto Intensivo
Visibilità : 
Base nubi : 
>= 8 km
>= 3000ft
5 / 8 km
1000 / 3000 ft
1500m / 5 km
500 / 1000 ft
800 / 1500m
200 / 500 ft
< 800m
< 200 ft
Simboli :   Temporali  Nebbia  Neve Forte  Precipitazioni Forti  Vento > 20 kt
SIGMETs :   Varie  Temporali  Ghiacco  Turbolenza  Onda orograficha  Ceneri Vulcaniche






- Altitudine del aeroporto : 255 ft


ENGC - Gullfaks C oil platform

ULTIMO METAR :
  • 151050Z 12005KT 9999 FEW035 15/11 Q1011 W12/S2

METARs OBSOLETI :
  • 151020Z 11006KT 9999 SCT035 15/11 Q1011 W12/S2
  • 150950Z 11004KT 9999 FEW005 14/11 Q1010 W11/S2
  • 150920Z 10004KT 9999 FEW005 14/11 Q1010 W12/S2
  • 150850Z 05003KT 020V080 9999 FEW005 SCT030 13/10 Q1010 W12/S2
  • 150820Z 02003KT 330V040 9999 FEW005 SCT030 13/10 Q1010 W///S2
  • 150750Z 06002KT 9999 FEW005 BKN030 13/10 Q1010 W12/S2

TAF TAF ENGC
Valido dal 15 a 09 ore il 16 a 09 ore UTC


1509/1609 VRB06KT 9999 FEW007 SCT030
PROB40
TEMPO 1509/1609 3000 BR BKN007
BECMG 1601/1603 18012KT



MetMap, La meteo Aeronautica in un colpo d'occhio ! - Copyright ORBIFLY Dicembre 2007 - Disclaimer

ORBIFLY MET'MAP TEAM :

Programmazione e sviluppo : Alexandra Zaïnal
Concezione : Baudouin d'Aumeries
Aiuto per la programmazione : Marc-Olivier Méhu
Supporto tecnico e logistico : Manuel Goepfert
Aiuto per la traduzione : Arnaldo La Scala

Contatto : metmap@orbifly.com




FONTI E CREDITI :

   NOAA